Time;durP1;ratioP1;P1;durP2;ratioP2;P2;SDS_P1;SDS_P2;PMS_P1;PMS_P2;Temp;Humidity;BMP_temperature;BMP_pressure;BME280_temperature;BME280_humidity;BME280_pressure;Samples;Min_cycle;Max_cycle;Signal;HPM_P1;HPM_P2
2022/07/06 00:01:29;;;;;;;2.17;1.57;;;16.50;69.50;;;;;;5048095;28;20679;-86
2022/07/06 00:03:58;;;;;;;1.70;1.60;;;16.60;70.20;;;;;;5049675;28;20756;-86
2022/07/06 00:06:25;;;;;;;2.13;1.73;;;;;;;;;;5048186;28;20728;-84
2022/07/06 00:08:52;;;;;;;1.80;1.70;;;16.50;69.80;;;;;;5048513;28;20642;-85
2022/07/06 00:11:20;;;;;;;2.33;2.10;;;16.50;69.80;;;;;;5053318;28;20649;-85
2022/07/06 00:13:48;;;;;;;1.80;1.00;;;16.40;70.80;;;;;;5048608;28;20644;-86
2022/07/06 00:16:15;;;;;;;1.80;1.70;;;16.50;70.30;;;;;;5054782;28;20708;-85
2022/07/06 00:18:42;;;;;;;2.00;1.90;;;16.40;70.70;;;;;;5052607;28;20724;-85
2022/07/06 00:21:12;;;;;;;1.47;1.37;;;16.40;70.80;;;;;;5052549;28;20987;-86
2022/07/06 00:23:39;;;;;;;1.63;1.50;;;16.40;70.90;;;;;;5049002;28;20798;-84
2022/07/06 00:26:08;;;;;;;1.63;1.53;;;16.40;71.00;;;;;;5052524;28;21462;-87
2022/07/06 00:28:35;;;;;;;2.10;1.40;;;16.40;71.40;;;;;;5055043;28;20640;-87
2022/07/06 00:31:03;;;;;;;2.00;1.90;;;;;;;;;;5055072;28;20631;-87
2022/07/06 00:33:31;;;;;;;2.90;2.30;;;16.50;71.80;;;;;;5052983;28;20685;-86
2022/07/06 00:35:59;;;;;;;1.87;1.77;;;16.40;73.40;;;;;;5047537;28;20684;-85
2022/07/06 00:38:28;;;;;;;2.00;1.73;;;16.30;73.60;;;;;;5053095;28;20649;-86
2022/07/06 00:40:55;;;;;;;1.70;1.60;;;;;;;;;;5052440;28;20684;-87
2022/07/06 00:43:22;;;;;;;1.40;1.30;;;16.30;74.10;;;;;;5047679;28;20693;-86
2022/07/06 00:45:50;;;;;;;1.50;1.40;;;16.20;74.40;;;;;;5050863;28;21275;-86
2022/07/06 00:48:18;;;;;;;1.70;1.60;;;16.10;74.80;;;;;;5050033;28;21255;-84
2022/07/06 00:50:46;;;;;;;2.47;2.27;;;16.10;76.00;;;;;;5052433;28;20721;-87
2022/07/06 00:53:14;;;;;;;1.90;1.63;;;16.10;76.30;;;;;;5048707;28;20636;-84
2022/07/06 00:55:46;;;;;;;1.80;1.70;;;16.00;76.00;;;;;;5053638;28;20622;-86
2022/07/06 00:58:13;;;;;;;2.13;1.90;;;15.80;76.40;;;;;;5058804;28;21227;-84
2022/07/06 01:00:44;;;;;;;1.97;1.87;;;16.00;76.20;;;;;;5054824;28;20614;-86
2022/07/06 01:03:11;;;;;;;1.70;1.60;;;16.00;76.50;;;;;;5047589;28;20646;-84
2022/07/06 01:05:38;;;;;;;1.97;1.87;;;16.00;76.60;;;;;;5055103;28;20680;-86
2022/07/06 01:08:05;;;;;;;3.80;2.13;;;16.00;75.90;;;;;;5046928;28;20626;-84
2022/07/06 01:10:32;;;;;;;2.40;2.20;;;16.00;76.20;;;;;;5045893;28;20713;-85
2022/07/06 01:13:02;;;;;;;2.10;2.00;;;16.10;76.80;;;;;;5055079;28;20631;-85
2022/07/06 01:15:29;;;;;;;2.30;2.03;;;16.10;77.30;;;;;;5048298;28;20684;-86
2022/07/06 01:17:57;;;;;;;1.83;1.73;;;16.00;78.20;;;;;;5055813;28;20629;-89
2022/07/06 01:20:27;;;;;;;2.23;2.10;;;16.10;76.00;;;;;;5054421;28;20717;-86
2022/07/06 01:22:56;;;;;;;2.77;2.50;;;15.90;76.60;;;;;;5046742;28;21000;-87
2022/07/06 01:25:24;;;;;;;1.73;1.63;;;15.90;77.00;;;;;;5047837;28;20622;-85
2022/07/06 01:27:51;;;;;;;2.10;1.90;;;15.80;77.80;;;;;;5048787;28;20627;-86
2022/07/06 01:30:20;;;;;;;1.80;1.70;;;15.80;78.30;;;;;;5050184;28;20634;-85
2022/07/06 01:32:48;;;;;;;3.10;2.50;;;15.80;79.20;;;;;;5050953;28;20622;-84
2022/07/06 01:35:16;;;;;;;2.57;2.10;;;15.60;79.40;;;;;;5048428;28;20621;-85
2022/07/06 01:37:46;;;;;;;2.53;2.33;;;15.60;79.30;;;;;;5050939;28;20865;-85
2022/07/06 01:40:13;;;;;;;1.60;1.50;;;15.70;79.00;;;;;;5053350;28;20627;-88
2022/07/06 01:42:41;;;;;;;2.20;1.83;;;15.70;78.10;;;;;;5051231;28;20681;-88
2022/07/06 01:45:10;;;;;;;2.00;1.90;;;15.70;79.20;;;;;;5048225;28;20718;-86
2022/07/06 01:47:38;;;;;;;1.67;1.57;;;15.60;79.40;;;;;;5046156;28;21157;-84
2022/07/06 01:50:08;;;;;;;2.53;2.33;;;15.70;80.10;;;;;;5046703;28;20618;-87
2022/07/06 01:52:35;;;;;;;2.10;2.00;;;15.60;79.90;;;;;;5050131;28;20742;-86
2022/07/06 01:55:05;;;;;;;2.03;1.93;;;15.50;78.50;;;;;;5049298;28;20630;-84
2022/07/06 01:57:37;;;;;;;2.20;2.00;;;15.70;77.80;;;;;;5049441;28;20638;-84
2022/07/06 02:00:07;;;;;;;1.70;1.60;;;15.80;75.30;;;;;;5049953;28;20649;-85
2022/07/06 02:02:34;;;;;;;1.37;1.27;;;15.70;77.00;;;;;;5047066;28;20654;-86
2022/07/06 02:05:01;;;;;;;1.50;1.40;;;15.70;76.80;;;;;;5051934;28;20614;-86
2022/07/06 02:07:28;;;;;;;1.70;1.60;;;15.70;76.10;;;;;;5053596;28;20673;-85
2022/07/06 02:09:55;;;;;;;2.03;1.93;;;15.60;76.10;;;;;;5046464;28;20688;-86
2022/07/06 02:12:23;;;;;;;2.40;1.90;;;15.80;75.40;;;;;;5049044;28;20696;-87
2022/07/06 02:14:50;;;;;;;1.70;1.60;;;15.60;75.00;;;;;;5044774;28;20661;-86
2022/07/06 02:17:17;;;;;;;1.83;1.50;;;15.70;75.70;;;;;;5058960;28;20621;-86
2022/07/06 02:19:44;;;;;;;1.73;1.63;;;15.60;77.40;;;;;;5055364;28;22514;-85
2022/07/06 02:22:10;;;;;;;1.57;1.47;;;15.60;76.40;;;;;;5056598;28;20612;-87
2022/07/06 02:24:37;;;;;;;1.63;1.53;;;15.60;76.60;;;;;;5049071;28;20681;-87
2022/07/06 02:27:05;;;;;;;1.60;1.50;;;15.60;77.00;;;;;;5051779;28;20623;-86
2022/07/06 02:29:33;;;;;;;2.17;1.67;;;15.40;76.10;;;;;;5045765;28;20619;-86
2022/07/06 02:32:00;;;;;;;1.73;1.57;;;15.40;77.10;;;;;;5051650;28;20614;-84
2022/07/06 02:34:27;;;;;;;1.77;1.57;;;15.40;77.80;;;;;;5055360;28;20644;-86
2022/07/06 02:36:53;;;;;;;1.40;1.30;;;15.40;77.40;;;;;;5051269;28;22980;-87
2022/07/06 02:39:20;;;;;;;1.53;1.43;;;15.30;77.70;;;;;;5053701;28;21601;-85
2022/07/06 02:41:47;;;;;;;1.33;1.13;;;15.30;77.90;;;;;;5055810;28;20624;-87
2022/07/06 02:44:14;;;;;;;1.70;1.60;;;15.30;78.50;;;;;;5057387;28;20661;-84
2022/07/06 02:46:42;;;;;;;1.33;1.23;;;15.20;77.00;;;;;;5057983;28;21210;-88
2022/07/06 02:49:09;;;;;;;2.07;1.87;;;;;;;;;;5055713;28;20730;-87
2022/07/06 02:51:36;;;;;;;1.47;1.37;;;15.20;78.30;;;;;;5059255;28;20617;-87
2022/07/06 02:54:04;;;;;;;1.70;1.60;;;15.20;78.60;;;;;;5059060;28;20740;-85
2022/07/06 02:56:30;;;;;;;1.50;1.40;;;15.10;77.20;;;;;;5051824;28;20707;-86
2022/07/06 02:58:57;;;;;;;2.07;1.33;;;15.10;77.00;;;;;;5058751;28;20640;-84
2022/07/06 03:01:24;;;;;;;1.70;1.57;;;15.20;77.90;;;;;;5054348;28;20626;-84
2022/07/06 03:03:52;;;;;;;2.00;1.90;;;15.20;77.70;;;;;;5054793;28;20689;-87
2022/07/06 03:06:19;;;;;;;1.17;1.17;;;15.20;77.60;;;;;;5053326;28;20621;-85
2022/07/06 03:08:46;;;;;;;1.97;1.77;;;15.20;77.50;;;;;;5053195;28;20684;-86
2022/07/06 03:11:13;;;;;;;2.13;1.97;;;15.10;77.90;;;;;;5053666;28;21385;-87
2022/07/06 03:13:40;;;;;;;1.93;1.83;;;15.10;78.00;;;;;;5052032;28;20692;-87
2022/07/06 03:16:07;;;;;;;2.97;2.00;;;15.00;77.60;;;;;;5059954;28;20606;-86
2022/07/06 03:18:34;;;;;;;1.53;1.37;;;15.10;78.30;;;;;;5052438;28;20638;-84
2022/07/06 03:21:03;;;;;;;1.93;1.67;;;15.10;78.90;;;;;;5051703;28;20637;-84
2022/07/06 03:23:31;;;;;;;1.80;1.70;;;15.10;78.20;;;;;;5050698;28;20654;-85
2022/07/06 03:25:58;;;;;;;1.87;1.77;;;15.00;77.80;;;;;;5055544;28;20622;-85
2022/07/06 03:28:24;;;;;;;1.60;1.43;;;14.80;78.50;;;;;;5051314;28;20710;-86
2022/07/06 03:30:51;;;;;;;1.67;1.57;;;14.90;79.00;;;;;;5058275;28;21204;-84
2022/07/06 03:33:18;;;;;;;2.47;2.27;;;14.90;80.40;;;;;;5052318;28;20621;-85
2022/07/06 03:35:45;;;;;;;2.40;2.20;;;14.60;81.60;;;;;;5050676;28;20629;-85
2022/07/06 03:38:13;;;;;;;1.90;1.70;;;14.70;81.60;;;;;;5050984;28;20625;-85
2022/07/06 03:40:40;;;;;;;2.13;2.00;;;14.50;81.50;;;;;;5055722;28;20713;-86
2022/07/06 03:43:07;;;;;;;2.53;2.00;;;14.70;81.20;;;;;;5053548;28;20615;-88
2022/07/06 03:45:34;;;;;;;2.10;1.80;;;14.70;81.50;;;;;;5051372;28;20679;-84
2022/07/06 03:48:01;;;;;;;1.53;1.43;;;14.60;81.80;;;;;;5060164;28;20698;-84
2022/07/06 03:50:28;;;;;;;3.93;2.17;;;14.70;82.40;;;;;;5053729;28;20668;-85
2022/07/06 03:52:54;;;;;;;1.60;1.50;;;14.70;82.10;;;;;;5058102;28;20706;-88
2022/07/06 03:55:23;;;;;;;2.00;1.70;;;14.70;83.20;;;;;;5053641;28;20717;-85
2022/07/06 03:57:49;;;;;;;2.40;2.23;;;14.70;82.30;;;;;;5058453;28;20701;-85
2022/07/06 04:00:16;;;;;;;2.50;1.90;;;14.60;81.70;;;;;;5051529;28;20626;-87
2022/07/06 04:02:43;;;;;;;2.27;2.10;;;14.70;82.20;;;;;;5049535;28;20703;-84
2022/07/06 04:05:10;;;;;;;2.60;1.90;;;14.60;82.90;;;;;;5053586;28;20743;-86
2022/07/06 04:07:37;;;;;;;1.70;1.60;;;14.60;83.80;;;;;;5049770;28;20711;-85
2022/07/06 04:10:04;;;;;;;2.50;2.00;;;14.70;84.30;;;;;;5054899;28;21023;-84
2022/07/06 04:12:40;;;;;;;2.27;2.00;;;14.70;82.80;;;;;;5051326;28;20642;-87
2022/07/06 04:15:08;;;;;;;1.70;1.60;;;14.70;83.40;;;;;;5029392;28;20647;-85
2022/07/06 04:20:22;;;;;;;2.20;2.10;;;14.80;84.30;;;;;;5067356;28;20634;-85
2022/07/06 04:22:49;;;;;;;1.80;1.67;;;14.80;83.60;;;;;;5050298;28;20704;-85
2022/07/06 04:25:17;;;;;;;2.07;1.80;;;14.90;83.60;;;;;;5048785;28;20790;-87
2022/07/06 04:27:45;;;;;;;1.83;1.73;;;15.00;84.60;;;;;;5049288;28;20623;-88
2022/07/06 04:30:12;;;;;;;1.50;1.40;;;15.10;83.50;;;;;;5051492;28;20638;-86
2022/07/06 04:32:39;;;;;;;2.43;2.23;;;15.20;84.00;;;;;;5069236;28;20621;-86
2022/07/06 04:35:07;;;;;;;2.17;2.00;;;15.20;84.10;;;;;;5054861;28;21255;-84
2022/07/06 04:37:34;;;;;;;1.70;1.60;;;15.20;82.60;;;;;;5052496;28;20626;-85
2022/07/06 04:40:01;;;;;;;2.37;2.23;;;15.20;83.00;;;;;;5059022;28;20623;-86
2022/07/06 04:42:28;;;;;;;2.70;2.50;;;15.20;83.50;;;;;;5049921;28;20696;-86
2022/07/06 04:44:56;;;;;;;2.00;1.80;;;14.90;83.80;;;;;;5051978;28;21547;-88
2022/07/06 04:47:23;;;;;;;4.10;3.70;;;;;;;;;;5048477;28;20618;-87
2022/07/06 04:49:50;;;;;;;3.60;2.83;;;15.00;84.20;;;;;;5068552;28;20630;-87
2022/07/06 04:52:17;;;;;;;2.07;1.93;;;15.10;85.00;;;;;;5057972;28;21274;-86
2022/07/06 04:54:44;;;;;;;3.33;1.80;;;15.10;85.40;;;;;;5048452;28;20634;-85
2022/07/06 04:57:10;;;;;;;2.40;2.20;;;15.10;86.10;;;;;;5052338;28;21294;-86
2022/07/06 04:59:37;;;;;;;2.43;2.27;;;15.20;85.70;;;;;;5048057;28;20657;-87
2022/07/06 05:02:06;;;;;;;3.13;2.80;;;15.30;85.90;;;;;;5062324;28;20606;-85
2022/07/06 05:04:33;;;;;;;2.40;2.13;;;15.30;85.10;;;;;;5066432;28;21096;-87
2022/07/06 05:07:00;;;;;;;2.73;2.53;;;15.40;84.70;;;;;;5048212;28;20619;-85
2022/07/06 05:09:27;;;;;;;3.97;3.60;;;15.30;85.10;;;;;;5048429;28;20610;-86
2022/07/06 05:11:53;;;;;;;1.93;1.80;;;15.40;84.50;;;;;;5067207;28;21230;-85
2022/07/06 05:14:20;;;;;;;3.07;2.60;;;15.50;84.50;;;;;;5048847;28;20716;-84
2022/07/06 05:16:47;;;;;;;3.70;2.67;;;15.50;84.50;;;;;;5056808;28;20645;-85
2022/07/06 05:19:15;;;;;;;3.53;2.00;;;15.50;85.30;;;;;;5068460;28;20734;-84
2022/07/06 05:21:42;;;;;;;1.90;1.77;;;15.50;85.00;;;;;;5062121;28;20630;-85
2022/07/06 05:24:09;;;;;;;2.00;1.87;;;15.50;84.40;;;;;;5026925;28;20658;-84
2022/07/06 05:26:36;;;;;;;2.93;2.40;;;15.60;85.00;;;;;;5025872;28;20730;-85
2022/07/06 05:29:03;;;;;;;1.90;1.80;;;15.70;84.80;;;;;;5026855;28;20619;-85
2022/07/06 05:31:30;;;;;;;3.60;2.83;;;15.90;84.20;;;;;;5026181;28;20619;-83
2022/07/06 05:33:57;;;;;;;2.50;2.30;;;15.90;84.20;;;;;;5028071;28;20635;-84
2022/07/06 05:36:25;;;;;;;2.00;1.83;;;16.00;83.50;;;;;;5027685;28;20643;-85
2022/07/06 05:38:52;;;;;;;2.10;2.00;;;15.90;83.10;;;;;;5027723;28;21022;-86
2022/07/06 05:41:19;;;;;;;2.43;2.23;;;16.00;83.80;;;;;;5047706;28;20650;-85
2022/07/06 05:43:46;;;;;;;1.93;1.80;;;16.10;83.90;;;;;;5048180;28;20637;-84
2022/07/06 05:46:13;;;;;;;1.90;1.80;;;16.20;83.20;;;;;;5047632;28;20676;-85
2022/07/06 05:51:26;;;;;;;1.93;1.73;;;16.50;82.10;;;;;;5047194;28;20614;-85
2022/07/06 05:53:53;;;;;;;1.97;1.87;;;16.60;81.90;;;;;;5047876;28;20692;-85
2022/07/06 05:56:22;;;;;;;1.87;1.77;;;16.70;79.60;;;;;;5047487;28;20622;-86
2022/07/06 05:58:49;;;;;;;2.80;2.27;;;16.70;80.20;;;;;;5047591;28;20673;-87
2022/07/06 06:01:16;;;;;;;2.00;1.87;;;16.90;78.50;;;;;;5047673;28;20602;-85
2022/07/06 06:03:43;;;;;;;2.03;1.80;;;16.80;79.20;;;;;;5047481;28;20622;-84
2022/07/06 06:06:10;;;;;;;7.90;3.00;;;17.00;79.90;;;;;;5050379;28;20713;-84
2022/07/06 06:08:38;;;;;;;2.90;2.60;;;16.70;80.00;;;;;;5051560;28;20737;-84
2022/07/06 06:11:05;;;;;;;2.33;2.07;;;16.90;79.00;;;;;;5051662;28;20711;-85
2022/07/06 06:13:31;;;;;;;2.07;1.90;;;17.00;78.80;;;;;;5051756;28;20622;-84
2022/07/06 06:15:58;;;;;;;2.30;2.20;;;17.10;79.20;;;;;;5051245;28;20650;-85
2022/07/06 06:18:25;;;;;;;2.33;2.13;;;17.10;78.40;;;;;;5051296;28;20708;-84
2022/07/06 06:20:52;;;;;;;2.80;1.97;;;17.10;78.90;;;;;;5051357;28;20618;-84
2022/07/06 06:23:19;;;;;;;2.40;2.27;;;17.20;79.50;;;;;;5051673;28;20614;-86
2022/07/06 06:25:48;;;;;;;2.63;2.43;;;17.30;78.80;;;;;;5051072;28;20709;-83
2022/07/06 06:28:15;;;;;;;2.30;1.93;;;17.30;78.50;;;;;;5051320;28;20610;-85
2022/07/06 06:30:42;;;;;;;2.20;1.93;;;17.40;78.40;;;;;;5051255;28;20755;-84
2022/07/06 06:33:11;;;;;;;2.60;2.10;;;17.50;77.70;;;;;;5050918;28;20712;-86
2022/07/06 06:35:39;;;;;;;2.07;1.97;;;17.50;78.10;;;;;;5050950;28;20729;-85
2022/07/06 06:38:05;;;;;;;2.40;2.20;;;17.50;77.90;;;;;;5050094;28;21177;-83
2022/07/06 06:40:32;;;;;;;2.10;1.93;;;17.50;77.10;;;;;;5050963;28;20650;-85
2022/07/06 06:43:01;;;;;;;2.90;2.50;;;17.50;76.40;;;;;;5050968;28;20614;-86
2022/07/06 06:45:28;;;;;;;2.40;2.20;;;17.40;77.00;;;;;;5050817;28;20658;-84
2022/07/06 06:47:55;;;;;;;2.27;2.00;;;17.50;77.50;;;;;;5050114;28;21286;-86
2022/07/06 06:50:22;;;;;;;1.60;1.50;;;17.50;77.80;;;;;;5050975;28;21179;-85
2022/07/06 06:52:49;;;;;;;3.30;2.20;;;17.60;77.70;;;;;;5051414;28;20613;-86
2022/07/06 06:55:16;;;;;;;2.30;2.10;;;18.20;77.60;;;;;;5051077;28;20642;-86
2022/07/06 06:57:43;;;;;;;2.33;2.13;;;17.60;76.80;;;;;;5050226;28;20626;-84
2022/07/06 07:00:16;;;;;;;2.10;2.00;;;17.60;77.70;;;;;;5050152;28;21024;-86
2022/07/06 07:02:43;;;;;;;1.87;1.73;;;;;;;;;;5051233;28;20610;-86
2022/07/06 07:05:10;;;;;;;3.90;2.40;;;17.50;77.00;;;;;;5051088;28;20997;-86
2022/07/06 07:07:38;;;;;;;3.13;2.93;;;;;;;;;;5051101;28;21522;-85
2022/07/06 07:10:06;;;;;;;2.10;1.97;;;17.60;77.50;;;;;;5050730;28;20917;-86
2022/07/06 07:12:33;;;;;;;3.20;2.40;;;17.40;75.60;;;;;;5050522;28;20607;-84
2022/07/06 07:15:00;;;;;;;3.53;2.20;;;17.60;76.60;;;;;;5050125;28;20614;-84
2022/07/06 07:17:29;;;;;;;1.97;1.87;;;17.70;77.40;;;;;;5049813;28;20618;-84
2022/07/06 07:19:57;;;;;;;2.27;2.07;;;17.90;76.00;;;;;;5050162;28;21168;-85
2022/07/06 07:22:24;;;;;;;3.60;2.53;;;17.90;75.40;;;;;;5050702;28;20621;-85
2022/07/06 07:24:51;;;;;;;2.73;2.40;;;18.10;76.00;;;;;;5050314;28;20661;-87
2022/07/06 07:27:18;;;;;;;1.73;1.63;;;18.40;73.50;;;;;;5049850;28;20611;-87
2022/07/06 07:29:45;;;;;;;2.17;1.97;;;18.30;73.40;;;;;;5046710;28;20615;-86
2022/07/06 07:32:11;;;;;;;2.30;2.10;;;18.10;74.00;;;;;;5049973;28;20629;-87
2022/07/06 07:34:40;;;;;;;2.40;2.30;;;18.00;73.80;;;;;;5049836;28;20630;-87
2022/07/06 07:37:06;;;;;;;3.17;2.60;;;18.30;73.90;;;;;;5050470;28;20684;-87
2022/07/06 07:39:33;;;;;;;1.90;1.80;;;18.40;72.30;;;;;;5050251;28;20721;-87
2022/07/06 07:42:00;;;;;;;2.20;2.00;;;18.30;72.90;;;;;;5049288;28;20631;-87
2022/07/06 07:44:27;;;;;;;2.77;2.57;;;18.30;73.20;;;;;;5049866;28;21222;-86
2022/07/06 07:46:54;;;;;;;2.00;1.87;;;18.40;72.80;;;;;;5050524;28;20625;-87
2022/07/06 07:49:21;;;;;;;2.10;2.00;;;18.50;74.20;;;;;;5049872;28;20683;-86
2022/07/06 07:51:50;;;;;;;2.60;2.40;;;18.50;72.20;;;;;;5050177;28;20714;-86
2022/07/06 07:54:17;;;;;;;1.60;1.50;;;18.60;74.30;;;;;;5049887;28;20630;-86
2022/07/06 07:56:44;;;;;;;1.93;1.73;;;18.80;72.20;;;;;;5049798;28;20618;-86
2022/07/06 07:59:11;;;;;;;2.43;2.23;;;18.90;72.60;;;;;;5045332;28;20607;-87
2022/07/06 08:01:38;;;;;;;2.47;2.27;;;19.30;73.50;;;;;;5048499;28;20747;-87
2022/07/06 08:04:05;;;;;;;1.73;1.57;;;19.30;73.40;;;;;;5049423;28;21294;-87
2022/07/06 08:06:34;;;;;;;2.13;2.03;;;19.60;71.80;;;;;;5049947;28;21012;-89
2022/07/06 08:09:04;;;;;;;2.03;1.93;;;19.60;72.20;;;;;;5049984;28;20622;-91
2022/07/06 08:11:32;;;;;;;2.60;2.40;;;19.50;69.50;;;;;;5049885;28;21195;-88
2022/07/06 08:13:59;;;;;;;1.60;1.50;;;19.30;69.80;;;;;;5050571;28;21038;-88
2022/07/06 08:16:26;;;;;;;4.00;2.10;;;19.30;71.00;;;;;;5047627;28;20623;-89
2022/07/06 08:18:53;;;;;;;2.40;2.20;;;19.40;71.40;;;;;;5049900;28;20730;-88
2022/07/06 08:21:20;;;;;;;2.77;2.57;;;19.60;69.20;;;;;;5049349;28;20692;-88
2022/07/06 08:23:47;;;;;;;2.20;2.00;;;;;;;;;;5049776;28;21121;-90
2022/07/06 08:26:15;;;;;;;2.80;2.47;;;19.70;69.30;;;;;;5050347;28;20673;-89
2022/07/06 08:28:42;;;;;;;2.67;2.47;;;19.60;69.50;;;;;;5048948;28;20622;-88
2022/07/06 08:31:09;;;;;;;2.13;2.00;;;19.60;69.70;;;;;;5045274;28;20725;-87
2022/07/06 08:33:36;;;;;;;1.97;1.87;;;19.90;70.60;;;;;;5048501;28;20934;-86
2022/07/06 08:36:04;;;;;;;2.53;2.33;;;19.90;69.70;;;;;;5048468;28;21152;-86
2022/07/06 08:38:31;;;;;;;3.30;3.00;;;20.00;70.30;;;;;;5049074;28;21060;-87
2022/07/06 08:40:59;;;;;;;2.80;2.60;;;20.30;69.70;;;;;;5050512;28;20717;-86
2022/07/06 08:43:27;;;;;;;2.17;1.97;;;20.10;68.70;;;;;;5049651;28;20635;-87
2022/07/06 08:45:55;;;;;;;2.00;1.90;;;20.20;67.80;;;;;;5048600;28;21247;-88
2022/07/06 08:48:24;;;;;;;2.47;2.27;;;20.50;68.30;;;;;;5049224;28;21408;-87
2022/07/06 08:50:52;;;;;;;2.83;2.63;;;20.50;69.00;;;;;;5048644;28;21184;-88
2022/07/06 08:53:20;;;;;;;3.13;2.40;;;20.50;67.80;;;;;;5048823;28;21157;-88
2022/07/06 08:55:48;;;;;;;2.80;2.30;;;20.60;67.50;;;;;;5048993;28;20676;-89
2022/07/06 08:58:15;;;;;;;2.50;2.27;;;20.70;68.30;;;;;;5049062;28;20709;-87
2022/07/06 09:00:43;;;;;;;2.33;2.10;;;20.90;69.30;;;;;;5048709;28;20665;-87
2022/07/06 09:03:13;;;;;;;2.47;2.30;;;21.10;66.90;;;;;;5047334;28;20622;-88
2022/07/06 09:05:44;;;;;;;2.83;2.63;;;21.40;66.90;;;;;;5028863;28;20657;-87
2022/07/06 09:08:11;;;;;;;2.33;2.23;;;21.20;66.30;;;;;;5035866;28;20694;-86
2022/07/06 09:10:38;;;;;;;2.03;1.80;;;21.20;65.90;;;;;;5048719;28;20688;-88
2022/07/06 09:13:06;;;;;;;2.17;2.07;;;21.40;65.20;;;;;;5048396;28;21013;-88
2022/07/06 09:15:34;;;;;;;1.67;1.40;;;21.30;68.10;;;;;;5048246;28;20622;-89
2022/07/06 09:18:04;;;;;;;2.63;2.43;;;21.40;67.90;;;;;;5048508;28;20618;-88
2022/07/06 09:20:34;;;;;;;2.07;1.97;;;21.30;66.10;;;;;;5048127;28;20665;-88
2022/07/06 09:23:03;;;;;;;7.53;2.00;;;21.60;68.20;;;;;;5028555;28;20627;-88
2022/07/06 09:25:31;;;;;;;2.50;2.30;;;21.50;65.50;;;;;;5030376;28;20742;-89
2022/07/06 09:28:00;;;;;;;2.00;1.90;;;21.50;66.20;;;;;;5047967;28;20622;-87
2022/07/06 09:30:29;;;;;;;2.60;2.40;;;21.70;65.90;;;;;;5048473;28;20696;-89
2022/07/06 09:32:59;;;;;;;2.20;2.00;;;21.80;65.80;;;;;;5048430;28;21511;-89
2022/07/06 09:35:30;;;;;;;2.60;2.40;;;21.80;66.60;;;;;;5047938;28;20779;-88
2022/07/06 09:38:05;;;;;;;2.40;2.30;;;21.50;64.50;;;;;;5048086;28;20614;-88
2022/07/06 09:40:34;;;;;;;2.10;2.00;;;21.50;67.00;;;;;;5047283;28;20664;-87
2022/07/06 09:43:12;;;;;;;2.50;2.30;;;21.80;68.40;;;;;;5046946;28;20743;-89
2022/07/06 09:45:43;;;;;;;2.33;2.10;;;21.80;64.80;;;;;;5047512;28;20712;-89
2022/07/06 09:48:12;;;;;;;2.20;2.10;;;21.80;65.30;;;;;;5047189;28;20675;-89
2022/07/06 09:50:43;;;;;;;2.13;2.00;;;22.20;67.00;;;;;;5047695;28;20637;-88
2022/07/06 09:53:10;;;;;;;2.30;2.10;;;22.30;63.50;;;;;;5047419;28;20630;-87
2022/07/06 09:55:37;;;;;;;2.00;1.90;;;22.30;64.00;;;;;;5047843;28;20638;-87
2022/07/06 09:58:05;;;;;;;2.00;1.90;;;22.20;63.40;;;;;;5048649;28;20664;-87
2022/07/06 10:00:34;;;;;;;2.70;2.50;;;22.40;64.20;;;;;;5048323;28;20667;-87
2022/07/06 10:03:01;;;;;;;2.83;2.60;;;22.70;62.90;;;;;;5048998;28;20618;-88
2022/07/06 10:05:30;;;;;;;2.07;1.97;;;22.30;62.10;;;;;;5047781;28;20657;-87
2022/07/06 10:08:00;;;;;;;2.80;2.43;;;22.70;63.60;;;;;;5047610;28;20623;-86
2022/07/06 10:10:28;;;;;;;2.80;2.60;;;22.80;63.90;;;;;;5047123;28;20654;-88
2022/07/06 10:12:57;;;;;;;2.93;2.63;;;23.00;63.70;;;;;;5046494;28;20626;-87
2022/07/06 10:15:26;;;;;;;3.00;2.30;;;22.80;59.80;;;;;;5046494;28;20630;-88
2022/07/06 10:17:55;;;;;;;2.83;2.60;;;23.10;62.70;;;;;;5047008;28;20658;-88
2022/07/06 10:20:22;;;;;;;2.60;2.40;;;23.20;61.40;;;;;;5045962;28;21198;-88
2022/07/06 10:22:50;;;;;;;2.13;1.93;;;23.20;60.20;;;;;;5047279;28;20618;-89
2022/07/06 10:25:19;;;;;;;2.37;2.17;;;22.80;59.20;;;;;;5046751;28;21086;-88
2022/07/06 10:27:47;;;;;;;2.50;2.30;;;23.50;60.20;;;;;;5047600;28;20729;-89
2022/07/06 10:30:15;;;;;;;2.20;2.10;;;23.50;61.80;;;;;;5047546;28;20594;-89
2022/07/06 10:32:45;;;;;;;2.03;1.93;;;23.60;61.60;;;;;;5047289;28;21375;-89
2022/07/06 10:35:15;;;;;;;2.50;2.03;;;23.50;60.80;;;;;;5047770;28;20676;-89
2022/07/06 10:37:42;;;;;;;2.20;2.10;;;23.60;60.00;;;;;;5047395;28;20610;-88
2022/07/06 10:42:59;;;;;;;2.70;2.50;;;23.80;60.40;;;;;;5047987;28;20607;-88
2022/07/06 10:45:51;;;;;;;5.30;3.13;;;23.60;59.40;;;;;;5047447;28;20656;-89
2022/07/06 10:48:18;;;;;;;2.00;1.87;;;23.50;60.10;;;;;;5047508;28;20657;-89
2022/07/06 10:50:52;;;;;;;1.80;1.70;;;23.40;59.90;;;;;;5047750;28;20617;-87
2022/07/06 10:53:23;;;;;;;2.83;2.63;;;23.50;61.70;;;;;;5050724;28;20622;-89
2022/07/06 10:55:51;;;;;;;2.43;2.23;;;23.60;60.00;;;;;;5051261;28;21265;-90
2022/07/06 10:58:41;;;;;;;2.83;2.63;;;23.70;60.70;;;;;;5051327;28;20639;-90
2022/07/06 11:01:09;;;;;;;1.90;1.67;;;23.90;58.40;;;;;;5051253;28;21160;-88
2022/07/06 11:03:39;;;;;;;2.27;2.07;;;23.80;59.00;;;;;;5051097;28;20614;-89
2022/07/06 11:06:13;;;;;;;2.43;2.23;;;24.10;58.60;;;;;;5050435;28;20729;-89
2022/07/06 11:08:54;;;;;;;1.80;1.70;;;24.10;58.60;;;;;;5051243;28;20747;-89
2022/07/06 11:11:23;;;;;;;2.37;2.10;;;24.50;60.30;;;;;;5051021;28;20611;-88
2022/07/06 11:13:54;;;;;;;1.93;1.80;;;24.70;59.20;;;;;;5051158;28;20642;-89
2022/07/06 11:16:23;;;;;;;2.83;2.63;;;24.90;59.20;;;;;;5050486;28;21220;-87
2022/07/06 11:18:59;;;;;;;2.83;2.63;;;24.80;59.40;;;;;;5050855;28;20626;-88
2022/07/06 11:21:35;;;;;;;2.60;2.40;;;24.30;59.00;;;;;;5050715;28;20699;-88
2022/07/06 11:24:03;;;;;;;2.10;1.90;;;24.50;59.90;;;;;;5050645;28;20613;-90
2022/07/06 11:26:31;;;;;;;2.23;2.13;;;24.60;59.10;;;;;;5050476;28;20657;-88
2022/07/06 11:29:01;;;;;;;3.00;2.67;;;25.20;59.30;;;;;;5049920;28;20633;-89
2022/07/06 11:31:28;;;;;;;2.30;2.13;;;25.30;58.50;;;;;;5051177;28;20606;-90
2022/07/06 11:33:55;;;;;;;2.53;2.40;;;;;;;;;;5051205;28;20614;-90
2022/07/06 11:36:23;;;;;;;2.60;2.30;;;24.40;58.30;;;;;;5050819;28;20606;-88
2022/07/06 11:38:51;;;;;;;1.97;1.87;;;24.80;58.10;;;;;;5051395;28;20618;-89
2022/07/06 11:41:18;;;;;;;2.60;2.40;;;25.60;58.50;;;;;;5050560;28;20627;-88
2022/07/06 11:43:51;;;;;;;2.00;1.90;;;25.40;57.20;;;;;;5050427;28;20622;-90
2022/07/06 11:46:30;;;;;;;2.40;2.20;;;26.10;58.10;;;;;;5050328;28;20670;-88
2022/07/06 11:48:59;;;;;;;2.27;2.17;;;26.00;55.90;;;;;;5049868;28;20741;-88
2022/07/06 11:51:27;;;;;;;2.00;1.90;;;26.30;56.50;;;;;;5050167;28;20607;-89
2022/07/06 11:53:57;;;;;;;2.07;1.90;;;27.00;56.60;;;;;;5049863;28;20971;-88
2022/07/06 11:56:26;;;;;;;1.77;1.67;;;26.90;54.50;;;;;;5049099;28;20642;-88
2022/07/06 11:58:58;;;;;;;2.30;2.10;;;27.40;54.80;;;;;;5049890;28;20725;-90
2022/07/06 12:01:28;;;;;;;2.40;2.30;;;27.40;55.20;;;;;;5049737;28;20722;-87
2022/07/06 12:03:58;;;;;;;2.47;2.30;;;27.60;54.20;;;;;;5049024;28;20615;-89
2022/07/06 12:06:26;;;;;;;1.87;1.77;;;27.50;54.20;;;;;;5048259;28;20754;-91
2022/07/06 12:08:55;;;;;;;2.47;2.30;;;27.20;54.40;;;;;;5049717;28;20691;-88
2022/07/06 12:11:24;;;;;;;5.60;2.30;;;26.30;54.60;;;;;;5049539;28;20668;-90
2022/07/06 12:13:52;;;;;;;2.33;2.23;;;26.90;55.50;;;;;;5048980;28;21212;-88
2022/07/06 12:16:20;;;;;;;2.53;1.83;;;27.50;54.80;;;;;;5048998;28;20630;-89
2022/07/06 12:18:49;;;;;;;2.33;2.17;;;28.10;53.70;;;;;;5049654;28;20737;-90
2022/07/06 12:21:18;;;;;;;2.47;2.17;;;28.90;53.70;;;;;;5049289;28;20615;-90
2022/07/06 12:23:48;;;;;;;2.60;2.40;;;28.50;51.50;;;;;;5049264;28;20679;-90
2022/07/06 12:26:16;;;;;;;2.50;2.30;;;27.60;52.80;;;;;;5049275;28;20642;-90
2022/07/06 12:28:44;;;;;;;2.07;1.97;;;28.10;53.20;;;;;;5049091;28;20614;-90
2022/07/06 12:31:12;;;;;;;2.00;1.90;;;28.70;52.40;;;;;;5049054;28;20627;-89
2022/07/06 12:33:39;;;;;;;2.20;2.00;;;27.90;52.60;;;;;;5048526;28;20652;-89
2022/07/06 12:36:16;;;;;;;2.30;2.10;;;28.00;53.20;;;;;;5048771;28;20630;-90
2022/07/06 12:38:47;;;;;;;3.13;2.93;;;28.50;52.70;;;;;;5048996;28;20610;-88
2022/07/06 12:41:32;;;;;;;2.93;2.30;;;27.10;51.50;;;;;;5049104;28;20606;-89
2022/07/06 12:44:04;;;;;;;3.20;3.00;;;28.80;51.50;;;;;;5048279;28;20687;-89
2022/07/06 12:46:33;;;;;;;2.10;2.00;;;28.80;50.60;;;;;;5048772;28;20654;-90
2022/07/06 12:49:03;;;;;;;1.90;1.80;;;28.70;50.90;;;;;;5048499;28;20623;-91
2022/07/06 12:51:53;;;;;;;1.87;1.77;;;30.10;50.20;;;;;;5048777;28;20617;-90
2022/07/06 12:54:20;;;;;;;1.83;1.73;;;30.30;50.60;;;;;;5048035;28;20621;-90
2022/07/06 12:57:06;;;;;;;2.50;2.30;;;30.80;50.00;;;;;;5048324;28;20629;-91
2022/07/06 12:59:35;;;;;;;2.73;2.53;;;32.40;48.10;;;;;;5048513;28;21188;-90
2022/07/06 13:02:02;;;;;;;2.83;2.03;;;32.00;46.00;;;;;;5048644;28;20621;-89
2022/07/06 13:04:31;;;;;;;2.53;2.33;;;30.80;46.40;;;;;;5048518;28;20614;-90